Time;durP1;ratioP1;P1;durP2;ratioP2;P2;SDS_P1;SDS_P2;PMS_P1;PMS_P2;Temp;Humidity;BMP_temperature;BMP_pressure;BME280_temperature;BME280_humidity;BME280_pressure;Samples;Min_cycle;Max_cycle;Signal;HPM_P1;HPM_P2
2022/06/17 00:01:35;;;;;;;5.75;2.40;;;;;;;25.13;33.34;100541.63;4939438;28;20665;-79
2022/06/17 00:04:02;;;;;;;3.80;2.20;;;;;;;25.15;33.16;100544.97;4968393;28;20238;-77
2022/06/17 00:06:39;;;;;;;3.17;2.10;;;;;;;25.13;32.77;100552.50;4985358;28;20050;-77
2022/06/17 00:09:07;;;;;;;2.80;2.50;;;;;;;25.14;33.72;100559.63;4955661;28;20046;-77
2022/06/17 00:11:36;;;;;;;4.75;2.47;;;;;;;25.10;33.62;100558.38;5000522;28;20042;-76
2022/06/17 00:14:12;;;;;;;5.07;2.35;;;;;;;25.13;33.54;100566.94;4970557;28;20502;-77
2022/06/17 00:16:39;;;;;;;1.98;1.80;;;;;;;25.13;33.32;100571.53;4988079;28;20071;-76
2022/06/17 00:19:06;;;;;;;5.85;2.22;;;;;;;25.10;31.94;100572.78;4963859;28;20151;-77
2022/06/17 00:21:36;;;;;;;3.35;2.20;;;;;;;25.10;33.56;100572.78;4984362;28;22257;-77
2022/06/17 00:24:14;;;;;;;3.90;2.13;;;;;;;25.07;34.07;100583.25;4978538;28;20097;-76
2022/06/17 00:26:41;;;;;;;6.63;3.35;;;;;;;25.02;34.29;100588.50;4989087;28;20046;-77
2022/06/17 00:29:12;;;;;;;2.83;2.63;;;;;;;24.92;35.03;100592.47;4971061;28;20061;-76
2022/06/17 00:31:39;;;;;;;3.03;2.42;;;;;;;24.86;34.94;100592.50;4987135;28;20116;-76
2022/06/17 00:34:06;;;;;;;4.45;2.30;;;;;;;24.80;34.78;100580.59;4985277;28;20054;-76
2022/06/17 00:36:34;;;;;;;4.18;2.20;;;;;;;24.77;34.33;100589.16;4964420;28;20057;-80
2022/06/17 00:39:01;;;;;;;2.55;2.35;;;;;;;24.73;34.86;100582.50;4965142;28;20065;-77
2022/06/17 00:41:36;;;;;;;4.13;2.92;;;;;;;24.66;35.41;100584.38;4981862;28;20617;-76
2022/06/17 00:44:38;;;;;;;3.67;2.50;;;;;;;24.56;35.98;100584.78;4955100;28;20053;-76
2022/06/17 00:47:17;;;;;;;3.97;2.35;;;;;;;24.54;35.74;100592.31;4927701;28;20054;-76
2022/06/17 00:49:53;;;;;;;4.65;2.58;;;;;;;24.47;35.59;100594.19;4985692;28;20136;-77
2022/06/17 00:52:26;;;;;;;4.65;2.40;;;;;;;24.41;35.95;100582.25;4950605;28;20044;-76
2022/06/17 00:54:56;;;;;;;12.05;2.45;;;;;;;24.43;35.27;100580.16;4999746;28;20458;-76
2022/06/17 00:57:33;;;;;;;4.15;2.50;;;;;;;24.42;35.65;100583.09;4972578;28;20054;-76
2022/06/17 01:00:16;;;;;;;3.28;2.40;;;;;;;24.37;35.88;100566.59;4970714;28;20058;-76
2022/06/17 01:02:58;;;;;;;2.90;2.33;;;;;;;24.30;35.60;100565.75;4977843;28;20045;-77
2022/06/17 01:05:32;;;;;;;3.55;2.15;;;;;;;24.22;35.72;100562.22;4983884;28;20046;-77
2022/06/17 01:08:03;;;;;;;2.75;1.90;;;;;;;24.18;35.50;100557.41;4955288;28;20046;-77
2022/06/17 01:10:31;;;;;;;2.90;1.90;;;;;;;24.14;35.50;100554.25;4949351;28;20042;-76
2022/06/17 01:13:03;;;;;;;4.70;2.50;;;;;;;24.15;35.64;100555.09;5002655;28;20101;-78
2022/06/17 01:15:34;;;;;;;3.60;2.13;;;;;;;24.12;35.65;100548.22;4967329;28;20050;-79
2022/06/17 01:18:02;;;;;;;2.88;2.20;;;;;;;24.06;35.79;100551.75;4996540;28;20057;-79
2022/06/17 01:20:30;;;;;;;2.72;2.15;;;;;;;23.96;36.32;100546.72;4964567;28;20069;-79
2022/06/17 01:23:01;;;;;;;4.00;2.40;;;;;;;23.92;36.22;100542.75;4983757;28;20084;-79
2022/06/17 01:25:36;;;;;;;2.45;2.10;;;;;;;23.89;36.64;100543.19;4977492;28;20429;-78
2022/06/17 01:28:08;;;;;;;3.63;2.05;;;;;;;23.87;36.39;100539.00;4968243;28;20050;-78
2022/06/17 01:30:47;;;;;;;2.88;2.22;;;;;;;23.84;36.78;100551.09;4964642;28;20056;-77
2022/06/17 01:33:30;;;;;;;3.08;2.42;;;;;;;23.78;36.88;100547.31;4980210;28;20100;-76
2022/06/17 01:36:07;;;;;;;5.55;2.50;;;;;;;23.76;36.72;100548.53;4977604;28;20157;-76
2022/06/17 01:38:35;;;;;;;3.67;2.53;;;;;;;23.72;37.07;100547.28;4977973;28;20685;-77
2022/06/17 01:41:02;;;;;;;3.45;2.40;;;;;;;23.69;36.59;100548.50;4994262;28;20065;-76
2022/06/17 01:44:00;;;;;;;2.30;2.10;;;;;;;23.62;36.73;100556.63;4997700;28;20041;-77
2022/06/17 01:46:33;;;;;;;2.55;2.35;;;;;;;23.61;36.95;100556.84;4934674;28;20504;-76
2022/06/17 01:49:20;;;;;;;2.80;2.25;;;;;;;23.59;36.97;100553.50;4983261;28;20049;-76
2022/06/17 01:52:01;;;;;;;6.28;2.85;;;;;;;23.55;36.89;100552.22;4968151;28;20137;-76
2022/06/17 01:54:31;;;;;;;2.58;2.38;;;;;;;23.50;37.06;100554.69;4964845;28;20517;-76
2022/06/17 01:56:59;;;;;;;2.85;2.30;;;;;;;23.47;36.85;100555.09;4966762;28;20760;-76
2022/06/17 01:59:33;;;;;;;3.90;2.63;;;;;;;23.42;37.27;100558.41;4980345;28;20393;-77
2022/06/17 02:02:03;;;;;;;2.95;1.92;;;;;;;23.39;36.99;100567.78;4967281;28;20501;-76
2022/06/17 02:04:34;;;;;;;3.90;2.40;;;;;;;23.38;37.29;100567.97;4976472;28;20049;-78
2022/06/17 02:07:22;;;;;;;3.10;2.42;;;;;;;23.30;37.60;100571.69;4962711;28;20489;-78
2022/06/17 02:09:49;;;;;;;2.30;2.10;;;;;;;23.27;37.49;100572.09;4931391;28;20046;-77
2022/06/17 02:12:18;;;;;;;3.10;2.20;;;;;;;23.23;37.65;100570.00;4984384;28;20053;-78
2022/06/17 02:14:52;;;;;;;3.30;2.22;;;;;;;23.18;37.61;100566.03;4969478;28;20498;-78
2022/06/17 02:17:41;;;;;;;6.07;2.20;;;;;;;23.13;37.67;100568.50;4960711;28;20520;-78
2022/06/17 02:20:21;;;;;;;3.80;2.30;;;;;;;23.12;37.71;100568.69;4965579;28;20061;-77
2022/06/17 02:22:49;;;;;;;4.50;2.58;;;;;;;23.09;37.42;100569.94;4988286;28;20073;-78
2022/06/17 02:25:20;;;;;;;4.43;2.20;;;;;;;23.05;37.67;100573.22;4994086;28;20072;-78
2022/06/17 02:27:51;;;;;;;3.20;2.50;;;;;;;23.05;37.68;100575.94;4983216;28;20122;-77
2022/06/17 02:30:18;;;;;;;2.97;2.25;;;;;;;23.03;37.78;100583.47;4971411;28;20455;-78
2022/06/17 02:32:46;;;;;;;5.43;2.50;;;;;;;23.01;37.75;100580.94;4977531;28;20485;-78
2022/06/17 02:35:37;;;;;;;3.25;2.00;;;;;;;22.99;38.31;100577.59;4961213;28;20137;-78
2022/06/17 02:38:05;;;;;;;3.75;2.17;;;;;;;22.96;38.09;100573.38;4962064;28;20046;-78
2022/06/17 02:40:35;;;;;;;2.78;2.28;;;;;;;22.94;38.07;100570.00;4946399;28;20050;-78
2022/06/17 02:43:10;;;;;;;5.75;2.35;;;;;;;22.90;38.53;100574.19;4984741;28;20410;-78
2022/06/17 02:45:41;;;;;;;2.03;1.80;;;;;;;22.84;38.54;100566.00;4976945;28;20482;-78
2022/06/17 02:48:20;;;;;;;3.22;1.90;;;;;;;22.81;38.47;100566.41;4984058;28;20093;-78
2022/06/17 02:50:47;;;;;;;3.70;2.03;;;;;;;22.79;38.03;100566.59;4992278;28;20140;-77
2022/06/17 02:53:14;;;;;;;2.58;2.03;;;;;;;22.76;38.04;100564.28;4979730;28;20084;-77
2022/06/17 02:55:42;;;;;;;4.03;2.15;;;;;;;22.72;38.05;100565.72;4989111;28;20568;-76
2022/06/17 02:58:28;;;;;;;4.55;2.30;;;;;;;22.68;37.77;100575.25;4985174;28;20130;-76
2022/06/17 03:00:56;;;;;;;2.65;2.08;;;;;;;22.65;37.88;100575.66;4931902;28;20050;-77
2022/06/17 03:03:24;;;;;;;4.70;1.80;;;;;;;22.60;38.13;100567.28;4978522;28;20049;-76
2022/06/17 03:05:51;;;;;;;2.58;1.90;;;;;;;22.54;38.17;100574.31;4979849;28;20509;-76
2022/06/17 03:08:24;;;;;;;1.98;1.70;;;;;;;22.46;38.49;100567.16;4977646;28;20052;-75
2022/06/17 03:10:53;;;;;;;2.42;2.08;;;;;;;22.46;38.36;100572.56;4992638;28;20050;-75
2022/06/17 03:13:30;;;;;;;2.33;1.80;;;;;;;22.40;38.63;100572.53;4966033;28;20054;-75
2022/06/17 03:16:00;;;;;;;2.47;2.03;;;;;;;22.35;38.79;100570.41;4980604;28;20046;-75
2022/06/17 03:18:27;;;;;;;2.05;1.85;;;;;;;22.30;38.75;100568.28;4986475;28;20073;-76
2022/06/17 03:20:57;;;;;;;2.53;2.13;;;;;;;22.24;38.74;100571.78;4966008;28;20053;-76
2022/06/17 03:23:42;;;;;;;5.30;2.17;;;;;;;22.21;39.22;100580.28;4988042;28;20061;-75
2022/06/17 03:26:13;;;;;;;3.42;1.90;;;;;;;22.17;39.18;100576.25;4975755;28;20066;-76
2022/06/17 03:28:43;;;;;;;2.00;1.90;;;;;;;22.18;38.90;100579.78;4998504;28;20045;-76
2022/06/17 03:31:18;;;;;;;3.00;2.63;;;;;;;22.12;39.23;100586.81;4980393;28;20042;-76
2022/06/17 03:33:50;;;;;;;3.85;2.08;;;;;;;22.10;39.19;100583.47;4981963;28;20161;-81
2022/06/17 03:36:46;;;;;;;2.53;1.77;;;;;;;22.08;39.81;100591.78;4996779;28;20046;-76
2022/06/17 03:39:43;;;;;;;2.88;2.13;;;;;;;22.06;39.65;100595.72;4957521;28;20128;-76
2022/06/17 03:42:34;;;;;;;5.03;2.40;;;;;;;22.12;39.64;100611.16;4978149;28;20100;-76
2022/06/17 03:45:05;;;;;;;3.03;2.00;;;;;;;22.55;39.51;100608.47;4920334;28;20477;-76
2022/06/17 03:47:44;;;;;;;5.90;2.55;;;;;;;23.03;38.66;100611.38;4971508;28;20050;-76
2022/06/17 03:50:22;;;;;;;2.50;2.17;;;;;;;23.25;37.96;100617.53;4979037;28;20185;-81
2022/06/17 03:52:56;;;;;;;4.07;1.90;;;;;;;23.38;37.38;100620.34;4955429;28;21541;-81
2022/06/17 03:55:23;;;;;;;3.45;2.40;;;;;;;23.47;37.60;100623.72;4986503;28;20454;-80
2022/06/17 03:57:52;;;;;;;2.45;2.10;;;;;;;23.56;37.14;100627.06;4965545;28;20061;-81
2022/06/17 04:00:43;;;;;;;3.45;2.47;;;;;;;23.64;37.04;100626.09;4978554;28;20512;-80
2022/06/17 04:03:13;;;;;;;3.50;2.10;;;;;;;23.67;37.17;100625.69;4955712;28;20097;-81
2022/06/17 04:05:42;;;;;;;4.32;2.30;;;;;;;23.62;37.11;100629.81;4973565;28;20053;-80
2022/06/17 04:08:12;;;;;;;5.78;2.60;;;;;;;23.53;37.89;100632.91;4988352;28;20155;-80
2022/06/17 04:10:41;;;;;;;2.33;2.00;;;;;;;23.47;37.89;100625.59;4964210;28;20050;-80
2022/06/17 04:13:12;;;;;;;3.13;2.20;;;;;;;23.38;39.07;100627.59;4982103;28;20058;-80
2022/06/17 04:15:54;;;;;;;2.60;2.40;;;;;;;23.35;39.43;100630.72;4987809;28;20432;-80
2022/06/17 04:18:21;;;;;;;3.80;2.05;;;;;;;23.31;39.45;100634.88;4982269;28;20069;-80
2022/06/17 04:20:52;;;;;;;2.30;2.10;;;;;;;23.27;39.20;100634.44;4996755;28;20046;-80
2022/06/17 04:23:22;;;;;;;3.80;2.10;;;;;;;23.25;39.35;100641.91;4985149;28;20378;-80
2022/06/17 04:26:25;;;;;;;2.83;2.33;;;;;;;23.18;38.72;100641.06;4968766;28;20077;-80
2022/06/17 04:28:59;;;;;;;3.78;2.40;;;;;;;23.15;38.55;100644.16;4980122;28;20050;-80
2022/06/17 04:31:32;;;;;;;4.05;2.60;;;;;;;23.18;39.13;100657.31;4966518;28;20049;-80
2022/06/17 04:34:14;;;;;;;3.58;3.08;;;;;;;23.15;38.21;100652.28;4967912;28;20148;-77
2022/06/17 04:36:53;;;;;;;6.43;3.10;;;;;;;23.21;38.32;100656.09;4981723;28;20390;-79
2022/06/17 04:39:38;;;;;;;4.97;2.90;;;;;;;23.18;38.15;100655.44;4964350;28;20367;-80
2022/06/17 04:42:16;;;;;;;3.72;2.22;;;;;;;23.17;38.12;100661.88;4957200;28;20115;-80
2022/06/17 04:44:44;;;;;;;7.43;2.53;;;;;;;23.18;38.15;100670.88;4969959;28;20141;-80
2022/06/17 04:47:15;;;;;;;5.20;2.95;;;;;;;23.13;38.21;100662.50;4971728;28;20076;-80
2022/06/17 04:49:49;;;;;;;3.55;2.50;;;;;;;23.12;38.58;100668.94;4970528;28;20080;-80
2022/06/17 04:52:23;;;;;;;3.50;2.83;;;;;;;23.13;38.67;100670.63;4975506;28;22224;-77
2022/06/17 04:54:53;;;;;;;5.88;2.60;;;;;;;23.16;38.26;100670.22;4990208;28;20049;-77
2022/06/17 04:57:38;;;;;;;3.45;2.50;;;;;;;23.18;38.39;100674.41;4947661;28;20050;-77
2022/06/17 05:00:21;;;;;;;3.33;1.80;;;;;;;23.11;38.57;100680.81;4975156;28;20038;-77
2022/06/17 05:02:53;;;;;;;3.38;2.35;;;;;;;23.10;38.59;100684.53;4965356;28;20397;-77
2022/06/17 05:05:41;;;;;;;3.58;2.10;;;;;;;23.10;38.62;100685.41;4967276;28;20052;-77
2022/06/17 05:08:43;;;;;;;2.67;2.47;;;;;;;23.07;38.89;100693.06;4998596;28;20047;-76
2022/06/17 05:11:21;;;;;;;4.53;2.42;;;;;;;22.97;39.16;100693.41;4924683;28;20050;-76
2022/06/17 05:13:58;;;;;;;4.65;2.63;;;;;;;22.98;38.89;100703.22;4968405;28;20121;-76
2022/06/17 05:16:26;;;;;;;4.68;2.65;;;;;;;22.93;38.71;100706.47;4952366;28;20100;-76
2022/06/17 05:18:56;;;;;;;3.88;2.53;;;;;;;22.88;39.29;100697.28;4969941;28;20047;-76
2022/06/17 05:21:24;;;;;;;3.42;2.40;;;;;;;22.91;39.17;100707.72;4979664;28;20562;-76
2022/06/17 05:24:01;;;;;;;9.27;2.70;;;;;;;22.85;39.44;100705.78;4986120;28;20046;-76
2022/06/17 05:26:30;;;;;;;4.38;2.72;;;;;;;22.87;39.47;100715.41;4971795;28;20523;-76
2022/06/17 05:28:58;;;;;;;4.93;2.38;;;;;;;22.93;39.58;100706.47;4994551;28;20069;-76
2022/06/17 05:31:27;;;;;;;3.22;2.42;;;;;;;23.02;40.16;100720.75;4982317;28;20056;-76
2022/06/17 05:34:03;;;;;;;3.47;2.50;;;;;;;23.06;39.97;100705.78;4949712;28;20129;-76
2022/06/17 05:36:31;;;;;;;4.13;2.70;;;;;;;23.09;39.85;100704.56;4963487;28;20213;-76
2022/06/17 05:38:57;;;;;;;4.00;2.42;;;;;;;23.09;39.85;100697.25;4967460;28;20545;-76
2022/06/17 05:41:26;;;;;;;5.30;2.67;;;;;;;23.13;39.93;100698.56;4966919;28;20050;-76
2022/06/17 05:43:54;;;;;;;3.45;2.38;;;;;;;23.19;40.40;100703.16;4983271;28;20612;-76
2022/06/17 05:46:31;;;;;;;3.65;2.42;;;;;;;23.25;40.42;100695.28;4935264;28;20058;-76
2022/06/17 05:49:38;;;;;;;6.80;2.75;;;;;;;23.31;40.65;100686.38;4963253;28;20048;-76
2022/06/17 05:52:18;;;;;;;4.38;2.60;;;;;;;23.34;40.75;100688.69;4985198;28;20049;-76
2022/06/17 05:55:05;;;;;;;2.40;2.20;;;;;;;23.37;40.47;100701.84;4943012;28;20046;-76
2022/06/17 05:57:32;;;;;;;4.00;2.45;;;;;;;23.36;40.45;100702.88;4980636;28;20095;-75
2022/06/17 05:59:59;;;;;;;2.60;2.13;;;;;;;23.40;41.19;100694.13;4959848;28;20437;-76
2022/06/17 06:02:39;;;;;;;4.38;1.85;;;;;;;23.48;40.91;100695.84;4985110;28;20050;-76
2022/06/17 06:05:15;;;;;;;5.00;2.50;;;;;;;23.51;40.93;100703.59;4969401;28;20060;-75
2022/06/17 06:07:41;;;;;;;2.95;2.15;;;;;;;23.55;41.33;100699.44;4995822;28;20046;-75
2022/06/17 06:10:09;;;;;;;4.60;2.25;;;;;;;23.58;41.13;100701.78;4976660;28;20387;-76
2022/06/17 06:15:31;;;;;;;4.35;2.17;;;;;;;23.64;40.63;100696.59;4912231;28;20054;-75
2022/06/17 06:18:30;;;;;;;4.18;2.15;;;;;;;23.71;40.43;100701.00;4942457;28;20108;-76
2022/06/17 06:21:00;;;;;;;3.08;2.05;;;;;;;23.74;40.23;100699.81;4962554;28;20893;-76
2022/06/17 06:23:28;;;;;;;4.05;2.03;;;;;;;23.77;39.69;100699.41;4993914;28;20054;-75
2022/06/17 06:25:54;;;;;;;3.42;2.20;;;;;;;23.75;39.84;100696.88;4979202;28;20053;-76
2022/06/17 06:28:24;;;;;;;2.92;2.08;;;;;;;23.79;39.21;100691.91;4994220;28;20050;-76
2022/06/17 06:31:18;;;;;;;2.95;1.80;;;;;;;23.79;39.08;100686.47;4976683;28;20050;-76
2022/06/17 06:33:45;;;;;;;2.65;1.70;;;;;;;23.86;39.18;100684.59;4979718;28;20129;-76
2022/06/17 06:36:11;;;;;;;4.03;2.00;;;;;;;23.92;39.37;100691.94;4965710;28;20387;-76
2022/06/17 06:38:38;;;;;;;2.22;2.03;;;;;;;23.94;39.24;100686.31;4977610;28;20041;-76
2022/06/17 06:41:05;;;;;;;3.15;1.70;;;;;;;23.94;38.64;100683.59;4966234;28;20042;-76
2022/06/17 06:43:34;;;;;;;4.65;2.30;;;;;;;23.92;39.66;100689.22;4949616;28;20050;-76
2022/06/17 06:46:26;;;;;;;2.55;1.92;;;;;;;23.89;38.66;100689.66;4939359;28;20046;-76
2022/06/17 06:48:56;;;;;;;4.05;2.35;;;;;;;23.87;38.12;100693.59;4968526;28;20063;-76
2022/06/17 06:51:23;;;;;;;2.97;2.10;;;;;;;23.91;38.17;100697.56;4985489;28;20056;-76
2022/06/17 06:53:53;;;;;;;3.15;1.77;;;;;;;23.94;37.82;100697.16;5002438;28;20128;-77
2022/06/17 06:56:21;;;;;;;2.75;2.00;;;;;;;24.01;38.02;100700.72;4985091;28;20096;-77
2022/06/17 06:58:51;;;;;;;4.88;2.08;;;;;;;24.05;37.75;100696.59;4970419;28;20104;-77
2022/06/17 07:01:19;;;;;;;2.80;1.83;;;;;;;24.02;37.72;100707.84;4998016;28;20050;-78
2022/06/17 07:03:46;;;;;;;4.20;2.00;;;;;;;24.02;37.69;100710.56;4982836;28;20277;-78
2022/06/17 07:06:43;;;;;;;4.00;1.83;;;;;;;24.01;37.68;100703.44;4993962;28;20412;-76
2022/06/17 07:09:12;;;;;;;3.30;2.05;;;;;;;24.05;37.85;100704.72;4986319;28;20164;-76
2022/06/17 07:11:39;;;;;;;7.18;2.13;;;;;;;24.08;37.59;100706.19;4994651;28;20108;-76
2022/06/17 07:14:06;;;;;;;5.25;2.17;;;;;;;24.10;37.37;100704.13;4988050;28;20046;-76
2022/06/17 07:16:33;;;;;;;3.03;2.00;;;;;;;24.06;37.11;100706.38;4980077;28;20050;-77
2022/06/17 07:19:00;;;;;;;4.03;1.98;;;;;;;24.11;37.34;100712.03;4980031;28;20057;-77
2022/06/17 07:21:27;;;;;;;5.53;2.17;;;;;;;24.16;37.60;100706.84;5003702;28;20128;-76
2022/06/17 07:23:53;;;;;;;1.92;1.73;;;;;;;24.14;37.24;100705.38;4986692;28;20054;-76
2022/06/17 07:26:22;;;;;;;3.35;2.00;;;;;;;24.14;36.91;100708.91;4984236;28;20058;-77
2022/06/17 07:28:52;;;;;;;4.88;2.00;;;;;;;24.18;36.79;100715.63;4967711;28;20518;-77
2022/06/17 07:31:20;;;;;;;4.88;1.80;;;;;;;24.18;36.87;100717.50;4969675;28;20061;-77
2022/06/17 07:33:46;;;;;;;5.20;2.33;;;;;;;24.23;36.96;100717.72;4981416;28;20053;-77
2022/06/17 07:41:50;;;;;;;2.42;2.05;;;;;;;24.30;37.19;100710.44;4973446;28;20045;-77
2022/06/17 07:44:17;;;;;;;3.67;2.40;;;;;;;24.35;37.41;100704.38;4986117;28;20058;-77
2022/06/17 07:47:15;;;;;;;3.17;1.80;;;;;;;24.33;36.73;100711.91;4990020;28;20552;-77
2022/06/17 07:49:42;;;;;;;3.25;2.08;;;;;;;24.42;36.96;100708.78;4941618;28;20057;-77
2022/06/17 07:52:09;;;;;;;4.78;2.45;;;;;;;24.46;37.07;100711.97;4982315;28;20034;-77
2022/06/17 07:54:36;;;;;;;3.83;2.03;;;;;;;24.54;37.09;100719.94;4987329;28;20149;-77
2022/06/17 07:57:03;;;;;;;2.40;2.00;;;;;;;24.56;37.09;100723.28;4998816;28;20555;-78
2022/06/17 07:59:30;;;;;;;4.43;1.90;;;;;;;24.57;38.05;100713.25;4980380;28;20050;-78
2022/06/17 08:01:57;;;;;;;2.63;2.03;;;;;;;24.63;37.53;100713.28;4994145;28;20096;-81
2022/06/17 08:04:24;;;;;;;5.60;1.90;;;;;;;24.59;36.99;100711.16;5000543;28;20441;-79
2022/06/17 08:06:51;;;;;;;4.57;2.20;;;;;;;24.63;37.02;100701.56;4993290;28;20042;-81
2022/06/17 08:09:23;;;;;;;4.15;2.30;;;;;;;24.63;37.14;100707.00;4981873;28;20100;-81
2022/06/17 08:11:50;;;;;;;5.95;2.17;;;;;;;24.65;37.03;100703.03;4966746;28;20116;-81
2022/06/17 08:14:18;;;;;;;2.78;2.00;;;;;;;24.64;36.89;100700.53;4983468;28;20141;-80
2022/06/17 08:16:45;;;;;;;2.97;2.10;;;;;;;24.63;36.65;100704.28;4980058;28;20488;-81
2022/06/17 08:19:12;;;;;;;4.20;2.10;;;;;;;24.72;36.37;100694.06;4983301;28;20378;-81
2022/06/17 08:21:39;;;;;;;3.05;1.98;;;;;;;24.73;37.21;100702.00;4997591;28;20121;-80
2022/06/17 08:24:24;;;;;;;6.45;2.50;;;;;;;24.71;37.17;100692.41;4992243;28;20065;-78
2022/06/17 08:26:51;;;;;;;3.17;2.13;;;;;;;24.79;36.77;100686.75;4987449;28;20498;-78
2022/06/17 08:29:19;;;;;;;5.25;2.50;;;;;;;24.72;36.95;100688.63;4987172;28;20046;-78
2022/06/17 08:34:51;;;;;;;3.65;2.60;;;;;;;24.72;37.61;100689.44;4948169;28;20098;-77
2022/06/17 08:37:18;;;;;;;3.55;2.30;;;;;;;24.79;37.64;100684.03;4990259;28;20054;-77
2022/06/17 08:39:47;;;;;;;2.45;2.10;;;;;;;24.87;37.22;100692.78;4984442;28;20046;-77
2022/06/17 08:42:30;;;;;;;4.13;2.50;;;;;;;24.85;36.56;100686.72;4978695;28;20097;-78
2022/06/17 08:45:22;;;;;;;2.65;2.13;;;;;;;24.88;36.34;100686.34;4996553;28;20054;-77
2022/06/17 08:48:05;;;;;;;3.95;2.10;;;;;;;24.95;35.89;100685.50;4910112;28;20112;-77
2022/06/17 08:50:40;;;;;;;6.55;2.67;;;;;;;24.92;35.73;100684.03;5003819;28;20069;-77
2022/06/17 08:53:30;;;;;;;2.65;2.45;;;;;;;24.96;36.47;100687.16;4998227;28;20050;-78
2022/06/17 08:56:22;;;;;;;4.35;2.60;;;;;;;24.90;35.99;100686.94;4985120;28;20041;-78
2022/06/17 08:59:02;;;;;;;3.63;2.40;;;;;;;24.86;35.94;100677.56;4989741;28;20401;-78
2022/06/17 09:01:45;;;;;;;3.78;2.50;;;;;;;24.94;35.57;100672.97;4987454;28;20053;-78
2022/06/17 09:04:22;;;;;;;4.40;2.58;;;;;;;24.95;35.64;100683.59;5010475;28;20097;-77
2022/06/17 09:06:55;;;;;;;3.67;2.20;;;;;;;24.89;36.47;100688.00;4978994;28;20046;-77
2022/06/17 09:09:55;;;;;;;2.15;1.88;;;;;;;24.83;36.01;100693.41;4981078;28;20638;-78
2022/06/17 09:12:41;;;;;;;3.58;2.15;;;;;;;24.68;36.32;100696.34;4969153;28;20137;-77
2022/06/17 09:15:31;;;;;;;2.17;1.98;;;;;;;24.77;35.69;100700.53;4954176;28;20052;-77
2022/06/17 09:18:17;;;;;;;2.03;1.80;;;;;;;24.87;35.91;100687.38;4971017;28;20163;-78
2022/06/17 09:20:47;;;;;;;7.10;2.33;;;;;;;24.93;36.08;100682.97;4963660;28;20060;-77
2022/06/17 09:23:17;;;;;;;3.95;2.40;;;;;;;24.97;36.32;100678.78;4997847;28;20038;-81
2022/06/17 09:25:46;;;;;;;2.30;1.98;;;;;;;25.01;35.25;100673.75;4990095;28;20046;-81
2022/06/17 09:28:18;;;;;;;4.10;2.05;;;;;;;25.05;34.85;100673.13;4996156;28;20057;-81
2022/06/17 09:30:50;;;;;;;3.88;2.45;;;;;;;25.00;35.64;100672.94;4978658;28;20057;-81
2022/06/17 09:33:54;;;;;;;2.83;2.30;;;;;;;24.99;34.44;100665.84;4980485;28;20065;-80
2022/06/17 09:36:41;;;;;;;3.72;2.10;;;;;;;25.11;34.46;100664.16;4908552;28;20054;-80
2022/06/17 09:39:13;;;;;;;2.42;1.92;;;;;;;25.23;34.11;100664.38;4963558;28;20128;-81
2022/06/17 09:41:51;;;;;;;2.88;2.30;;;;;;;25.18;33.99;100661.44;4999304;28;20482;-78
2022/06/17 09:44:27;;;;;;;3.78;2.38;;;;;;;25.17;34.43;100661.69;4965215;28;20185;-78
2022/06/17 09:47:12;;;;;;;2.83;1.92;;;;;;;25.13;34.41;100661.22;4994785;28;20037;-78
2022/06/17 09:49:54;;;;;;;2.10;1.90;;;;;;;25.00;34.20;100661.25;4978079;28;20046;-81
2022/06/17 09:52:43;;;;;;;4.45;2.15;;;;;;;25.06;34.76;100654.94;4967908;28;20051;-80
2022/06/17 09:55:24;;;;;;;4.90;2.38;;;;;;;25.12;35.60;100649.50;4968348;28;20046;-81
2022/06/17 09:57:53;;;;;;;2.42;2.20;;;;;;;25.24;35.48;100636.16;4988357;28;20556;-80
2022/06/17 10:00:22;;;;;;;3.00;2.40;;;;;;;25.33;35.64;100651.16;4978071;28;20425;-80
2022/06/17 10:02:59;;;;;;;2.80;2.10;;;;;;;25.40;34.87;100653.06;4988514;28;20125;-78
2022/06/17 10:05:56;;;;;;;2.17;1.90;;;;;;;25.46;34.81;100655.75;4993482;28;20398;-81
2022/06/17 10:08:41;;;;;;;6.93;2.33;;;;;;;25.56;34.29;100660.72;4949837;28;20053;-80
2022/06/17 10:11:21;;;;;;;2.30;1.90;;;;;;;25.55;34.08;100661.78;4975967;28;20567;-81
2022/06/17 10:14:16;;;;;;;2.63;1.80;;;;;;;25.59;34.51;100664.91;4978310;28;20132;-81
2022/06/17 10:20:25;;;;;;;2.88;1.90;;;;;;;25.72;34.15;100665.72;4934952;28;20054;-80
2022/06/17 10:23:01;;;;;;;2.83;2.20;;;;;;;25.75;33.68;100665.28;4959125;28;20042;-81
2022/06/17 10:25:39;;;;;;;2.78;2.00;;;;;;;25.80;33.65;100666.50;4981212;28;20038;-80
2022/06/17 10:28:06;;;;;;;4.82;2.20;;;;;;;25.83;33.39;100661.47;4963602;28;20050;-81
2022/06/17 10:31:00;;;;;;;2.38;2.17;;;;;;;25.69;33.18;100657.97;4993530;28;20481;-81
2022/06/17 10:33:30;;;;;;;5.55;2.47;;;;;;;25.75;33.56;100661.72;4927705;28;20041;-81
2022/06/17 10:35:57;;;;;;;3.47;2.05;;;;;;;25.70;34.21;100656.94;4966950;28;20054;-81
2022/06/17 10:38:28;;;;;;;5.03;2.40;;;;;;;25.70;34.43;100662.38;4979107;28;20042;-81
2022/06/17 10:40:54;;;;;;;3.03;2.40;;;;;;;25.74;35.27;100660.88;4984783;28;20484;-80
2022/06/17 10:43:26;;;;;;;2.92;2.25;;;;;;;25.75;34.59;100653.56;4964349;28;20512;-80
2022/06/17 10:45:53;;;;;;;3.47;2.10;;;;;;;25.78;33.80;100648.50;4995232;28;20458;-82
2022/06/17 10:48:32;;;;;;;5.68;2.35;;;;;;;25.76;33.43;100647.06;4994265;28;20045;-82
2022/06/17 10:51:02;;;;;;;4.18;2.60;;;;;;;25.84;33.71;100645.97;4983769;28;20402;-75
2022/06/17 10:53:34;;;;;;;2.53;2.00;;;;;;;25.84;34.55;100645.97;4997837;28;20077;-76
2022/06/17 10:56:36;;;;;;;3.00;2.38;;;;;;;25.82;34.67;100639.91;4970243;28;20046;-76
2022/06/17 10:59:09;;;;;;;5.07;2.13;;;;;;;25.92;34.01;100654.75;4959877;28;20050;-76
2022/06/17 11:01:45;;;;;;;2.30;2.10;;;;;;;25.97;34.29;100648.66;4998427;28;20041;-76
2022/06/17 11:04:16;;;;;;;2.33;2.03;;;;;;;25.95;33.94;100648.03;4984864;28;20397;-75
2022/06/17 11:06:57;;;;;;;2.47;1.92;;;;;;;25.95;33.78;100639.88;4978057;28;20409;-82
2022/06/17 11:09:59;;;;;;;2.38;1.77;;;;;;;25.99;33.92;100638.41;4981246;28;20047;-82
2022/06/17 11:12:34;;;;;;;1.80;1.70;;;;;;;26.08;33.75;100641.69;4928348;28;20050;-82
2022/06/17 11:15:05;;;;;;;1.90;1.80;;;;;;;26.18;33.65;100648.34;4991520;28;20130;-78
2022/06/17 11:17:35;;;;;;;3.35;1.90;;;;;;;26.18;33.22;100640.19;4975163;28;20113;-82
2022/06/17 11:20:29;;;;;;;3.63;2.22;;;;;;;26.09;32.97;100638.75;4980849;28;20049;-77
2022/06/17 11:23:46;;;;;;;3.45;2.00;;;;;;;26.21;33.77;100633.47;4915616;28;20046;-76
2022/06/17 11:26:16;;;;;;;3.67;2.08;;;;;;;26.30;33.39;100634.03;4956155;28;20398;-79
2022/06/17 11:28:46;;;;;;;7.57;2.40;;;;;;;26.40;32.97;100627.03;4999447;28;20049;-80
2022/06/17 11:32:08;;;;;;;4.32;2.15;;;;;;;26.32;32.65;100626.47;4994650;28;20572;-79
2022/06/17 11:34:46;;;;;;;2.63;1.90;;;;;;;26.35;32.66;100624.13;4965023;28;20092;-80
2022/06/17 11:37:16;;;;;;;3.35;2.20;;;;;;;26.32;32.25;100619.13;4980816;28;20124;-79
2022/06/17 11:40:09;;;;;;;3.13;2.03;;;;;;;26.27;31.76;100629.03;4964504;28;20050;-80
2022/06/17 11:43:06;;;;;;;2.45;2.10;;;;;;;26.15;31.60;100627.00;4965182;28;20046;-80
2022/06/17 11:45:36;;;;;;;5.03;2.42;;;;;;;26.28;32.20;100615.22;4938510;28;20057;-79
2022/06/17 11:48:09;;;;;;;5.53;2.00;;;;;;;26.32;31.80;100624.59;4987572;28;20504;-78
2022/06/17 11:50:37;;;;;;;2.60;2.40;;;;;;;26.31;32.24;100622.94;4986111;28;20038;-82
2022/06/17 11:53:11;;;;;;;2.97;2.08;;;;;;;26.27;32.13;100616.25;4989326;28;20053;-79
2022/06/17 11:55:42;;;;;;;2.65;2.13;;;;;;;26.23;31.91;100611.44;4967816;28;20045;-81
2022/06/17 11:58:31;;;;;;;3.38;2.15;;;;;;;26.36;32.13;100611.38;4957851;28;20482;-77
2022/06/17 12:01:12;;;;;;;3.78;2.22;;;;;;;26.34;32.83;100611.59;4979734;28;20429;-76
2022/06/17 12:03:42;;;;;;;5.13;1.95;;;;;;;26.40;32.98;100612.59;4988219;28;20042;-77
2022/06/17 12:06:28;;;;;;;2.80;2.20;;;;;;;26.48;33.17;100608.75;5000786;28;20038;-77
2022/06/17 12:09:04;;;;;;;2.15;1.95;;;;;;;26.46;32.72;100605.41;4987925;28;20037;-79
2022/06/17 12:11:58;;;;;;;3.65;1.95;;;;;;;26.50;31.36;100596.59;4969876;28;20072;-77
2022/06/17 12:14:30;;;;;;;2.47;1.80;;;;;;;26.59;30.94;100589.84;4979227;28;20410;-76
2022/06/17 12:16:57;;;;;;;3.00;2.10;;;;;;;26.59;31.13;100598.03;4992994;28;20062;-79